Time;durP1;ratioP1;P1;durP2;ratioP2;P2;SDS_P1;SDS_P2;PMS_P1;PMS_P2;Temp;Humidity;BMP_temperature;BMP_pressure;BME280_temperature;BME280_humidity;BME280_pressure;Samples;Min_cycle;Max_cycle;Signal;HPM_P1;HPM_P2
2023/05/28 00:02:06;;;;;;;12.60;4.97;;;;;;;;;;5057364;28;20115;-75
2023/05/28 00:04:32;;;;;;;12.98;4.32;;;;;;;;;;5051086;28;20065;-76
2023/05/28 00:06:58;;;;;;;7.70;3.75;;;;;;;;;;5050416;28;20044;-76
2023/05/28 00:09:24;;;;;;;11.68;3.90;;;;;;;;;;5050472;28;20108;-76
2023/05/28 00:11:50;;;;;;;11.05;5.10;;;;;;;;;;5050677;28;20031;-77
2023/05/28 00:14:16;;;;;;;13.82;6.50;;;;;;;;;;5048523;28;20039;-76
2023/05/28 00:16:44;;;;;;;10.85;4.20;;;;;;;;;;5051958;28;20453;-76
2023/05/28 00:19:10;;;;;;;11.07;5.60;;;;;;;;;;5051778;28;20428;-76
2023/05/28 00:21:36;;;;;;;9.82;4.10;;;;;;;;;;5050778;28;20028;-75
2023/05/28 00:24:03;;;;;;;16.33;4.75;;;;;;;;;;5070975;28;20059;-75
2023/05/28 00:26:29;;;;;;;13.63;4.78;;;;;;;;;;5060098;28;20110;-76
2023/05/28 00:28:55;;;;;;;18.30;7.50;;;;;;;;;;5050639;28;20021;-77
2023/05/28 00:31:21;;;;;;;13.90;4.90;;;;;;;;;;5051368;28;20044;-75
2023/05/28 00:33:47;;;;;;;8.00;3.85;;;;;;;;;;5051942;28;20028;-75
2023/05/28 00:36:13;;;;;;;15.88;6.65;;;;;;;;;;5057196;28;20077;-76
2023/05/28 00:38:40;;;;;;;12.70;5.00;;;;;;;;;;5056773;28;20032;-76
2023/05/28 00:41:06;;;;;;;12.70;4.57;;;;;;;;;;5050322;28;20057;-77
2023/05/28 00:43:32;;;;;;;10.70;4.40;;;;;;;;;;5051272;28;20047;-76
2023/05/28 00:46:01;;;;;;;11.15;4.13;;;;;;;;;;5048964;28;20029;-74
2023/05/28 00:48:27;;;;;;;10.55;4.57;;;;;;;;;;5050972;28;20036;-76
2023/05/28 00:50:54;;;;;;;11.98;5.88;;;;;;;;;;5052704;28;20039;-76
2023/05/28 00:53:20;;;;;;;11.95;4.38;;;;;;;;;;5069771;28;20028;-76
2023/05/28 00:55:47;;;;;;;11.35;4.88;;;;;;;;;;5070739;28;20052;-76
2023/05/28 00:58:16;;;;;;;12.75;4.78;;;;;;;;;;5057371;28;20091;-75
2023/05/28 01:00:43;;;;;;;12.32;5.72;;;;;;;;;;5068966;28;20545;-76
2023/05/28 01:03:09;;;;;;;11.00;4.57;;;;;;;;;;5049760;28;20463;-75
2023/05/28 01:05:36;;;;;;;18.55;7.20;;;;;;;;;;5049031;28;20033;-76
2023/05/28 01:08:03;;;;;;;11.88;4.63;;;;;;;;;;5050278;28;20396;-77
2023/05/28 01:10:30;;;;;;;16.80;5.43;;;;;;;;;;5050982;28;20426;-77
2023/05/28 01:12:57;;;;;;;18.42;5.38;;;;;;;;;;5049820;28;21108;-76
2023/05/28 01:15:23;;;;;;;11.10;4.10;;;;;;;;;;5054556;28;20397;-76
2023/05/28 01:17:52;;;;;;;20.63;6.70;;;;;;;;;;5051648;28;20039;-75
2023/05/28 01:20:18;;;;;;;17.73;5.68;;;;;;;;;;5052389;28;20024;-76
2023/05/28 01:22:51;;;;;;;17.60;5.97;;;;;;;;;;5070288;28;20565;-76
2023/05/28 01:25:18;;;;;;;14.73;6.35;;;;;;;;;;5070653;28;20059;-76
2023/05/28 01:27:44;;;;;;;12.55;5.32;;;;;;;;;;5038950;28;20112;-77
2023/05/28 01:30:11;;;;;;;14.18;6.30;;;;;;;;;;5050029;28;20061;-77
2023/05/28 01:32:38;;;;;;;14.13;6.90;;;;;;;;;;5061223;28;20020;-76
2023/05/28 01:35:05;;;;;;;13.27;4.93;;;;;;;;;;5049900;28;20510;-76
2023/05/28 01:37:33;;;;;;;9.50;3.67;;;;;;;;;;5050513;28;20100;-76
2023/05/28 01:40:00;;;;;;;9.32;4.35;;;;;;;;;;5049705;28;20029;-76
2023/05/28 01:42:26;;;;;;;13.30;5.32;;;;;;;;;;5062745;28;20032;-76
2023/05/28 01:44:53;;;;;;;13.55;4.15;;;;;;;;;;5058642;28;20487;-75
2023/05/28 01:47:19;;;;;;;17.98;6.75;;;;;;;;;;5052163;28;20060;-75
2023/05/28 01:49:45;;;;;;;11.45;4.88;;;;;;;;;;5069274;28;20032;-75
2023/05/28 01:52:13;;;;;;;11.15;4.18;;;;;;;;;;5068583;28;20403;-76
2023/05/28 01:54:40;;;;;;;14.48;5.65;;;;;;;;;;5064772;28;20033;-77
2023/05/28 01:57:06;;;;;;;11.15;4.85;;;;;;;;;;5070330;28;20039;-76
2023/05/28 01:59:32;;;;;;;14.32;4.70;;;;;;;;;;5069983;28;20033;-76
2023/05/28 02:01:58;;;;;;;15.60;6.20;;;;;;;;;;5058404;28;20036;-77
2023/05/28 02:04:24;;;;;;;10.23;3.78;;;;;;;;;;5067185;28;20415;-77
2023/05/28 02:06:51;;;;;;;12.40;4.93;;;;;;;;;;5069978;28;20017;-76
2023/05/28 02:09:17;;;;;;;12.10;4.95;;;;;;;;;;5050005;28;20052;-76
2023/05/28 02:11:43;;;;;;;15.55;6.03;;;;;;;;;;5051542;28;20441;-76
2023/05/28 02:14:14;;;;;;;13.55;6.05;;;;;;;;;;5049998;28;20053;-77
2023/05/28 02:16:49;;;;;;;10.18;4.68;;;;;;;;;;5049774;28;20031;-76
2023/05/28 02:19:15;;;;;;;10.35;5.20;;;;;;;;;;5071058;28;20029;-76
2023/05/28 02:21:42;;;;;;;24.63;8.15;;;;;;;;;;5050150;28;20028;-77
2023/05/28 02:24:08;;;;;;;9.80;4.68;;;;;;;;;;5043013;28;20209;-76
2023/05/28 02:26:34;;;;;;;13.68;5.30;;;;;;;;;;5050279;28;20368;-76
2023/05/28 02:29:00;;;;;;;14.57;5.03;;;;;;;;;;5061235;28;20446;-76
2023/05/28 02:31:26;;;;;;;9.85;4.80;;;;;;;;;;5056207;28;20042;-76
2023/05/28 02:33:52;;;;;;;12.48;6.30;;;;;;;;;;5051913;28;20123;-76
2023/05/28 02:36:18;;;;;;;13.10;5.70;;;;;;;;;;5069826;28;20315;-75
2023/05/28 02:38:44;;;;;;;8.63;4.32;;;;;;;;;;5069305;28;20028;-77
2023/05/28 02:41:10;;;;;;;20.15;7.10;;;;;;;;;;5068766;28;20077;-76
2023/05/28 02:43:37;;;;;;;18.88;7.57;;;;;;;;;;5057496;28;20040;-77
2023/05/28 02:46:03;;;;;;;16.27;7.75;;;;;;;;;;5066983;28;20033;-76
2023/05/28 02:48:29;;;;;;;20.83;6.53;;;;;;;;;;5068929;28;20024;-76
2023/05/28 02:50:55;;;;;;;16.15;5.97;;;;;;;;;;5056257;28;20048;-76
2023/05/28 02:53:22;;;;;;;13.43;5.55;;;;;;;;;;5058580;28;20075;-76
2023/05/28 02:55:48;;;;;;;18.88;6.25;;;;;;;;;;5066287;28;20494;-76
2023/05/28 02:58:14;;;;;;;13.57;5.78;;;;;;;;;;5068795;28;20040;-75
2023/05/28 03:00:40;;;;;;;12.98;6.30;;;;;;;;;;5066686;28;20021;-76
2023/05/28 03:03:07;;;;;;;16.48;6.95;;;;;;;;;;5059824;28;20147;-76
2023/05/28 03:05:33;;;;;;;16.23;6.45;;;;;;;;;;5069145;28;20031;-76
2023/05/28 03:07:59;;;;;;;18.30;7.53;;;;;;;;;;5053957;28;20107;-76
2023/05/28 03:10:25;;;;;;;16.35;6.88;;;;;;;;;;5051192;28;20058;-76
2023/05/28 03:12:51;;;;;;;13.77;6.55;;;;;;;;;;5057353;28;20399;-77
2023/05/28 03:15:17;;;;;;;16.67;6.53;;;;;;;;;;5049162;28;20029;-76
2023/05/28 03:17:43;;;;;;;13.05;5.63;;;;;;;;;;5048775;28;20487;-76
2023/05/28 03:20:10;;;;;;;22.30;8.23;;;;;;;;;;5048607;28;20025;-76
2023/05/28 03:22:40;;;;;;;12.77;5.22;;;;;;;;;;5048514;28;20279;-76
2023/05/28 03:25:07;;;;;;;18.85;7.25;;;;;;;;;;5047114;28;20029;-76
2023/05/28 03:27:33;;;;;;;13.00;4.75;;;;;;;;;;5047812;28;20075;-76
2023/05/28 03:29:59;;;;;;;20.08;5.97;;;;;;;;;;5056077;28;20036;-76
2023/05/28 03:32:25;;;;;;;17.15;7.65;;;;;;;;;;5070015;28;20025;-76
2023/05/28 03:34:51;;;;;;;22.77;8.68;;;;;;;;;;5068834;28;20032;-74
2023/05/28 03:37:17;;;;;;;15.85;7.18;;;;;;;;;;5070323;28;20162;-76
2023/05/28 03:39:44;;;;;;;16.80;6.10;;;;;;;;;;5052239;28;20406;-76
2023/05/28 03:42:10;;;;;;;19.15;7.38;;;;;;;;;;5068545;28;20028;-75
2023/05/28 03:44:36;;;;;;;17.15;6.15;;;;;;;;;;5068861;28;20522;-77
2023/05/28 03:47:02;;;;;;;17.90;6.25;;;;;;;;;;5051078;28;20024;-77
2023/05/28 03:49:28;;;;;;;14.77;6.00;;;;;;;;;;5068816;28;20432;-76
2023/05/28 03:51:55;;;;;;;13.38;6.28;;;;;;;;;;5068441;28;20024;-76
2023/05/28 03:54:21;;;;;;;10.35;4.35;;;;;;;;;;5068367;28;20628;-76
2023/05/28 03:56:47;;;;;;;14.75;6.72;;;;;;;;;;5053333;28;20059;-76
2023/05/28 03:59:13;;;;;;;15.10;7.05;;;;;;;;;;5070393;28;20040;-76
2023/05/28 04:01:39;;;;;;;15.90;7.13;;;;;;;;;;5063114;28;20032;-76
2023/05/28 04:04:05;;;;;;;13.73;5.82;;;;;;;;;;5050873;28;20145;-75
2023/05/28 04:06:32;;;;;;;16.70;7.13;;;;;;;;;;5073860;28;20035;-76
2023/05/28 04:08:58;;;;;;;15.82;6.35;;;;;;;;;;5054839;28;20029;-75
2023/05/28 04:11:29;;;;;;;19.17;8.27;;;;;;;;;;5055917;28;20024;-77
2023/05/28 04:13:55;;;;;;;14.80;7.63;;;;;;;;;;5054206;28;20395;-76
2023/05/28 04:16:23;;;;;;;17.13;7.40;;;;;;;;;;5059873;28;20548;-76
2023/05/28 04:18:49;;;;;;;14.23;6.68;;;;;;;;;;5071767;28;20023;-77
2023/05/28 04:21:15;;;;;;;12.15;6.20;;;;;;;;;;5040596;28;20036;-76
2023/05/28 04:23:41;;;;;;;15.75;7.28;;;;;;;;;;5072140;28;20036;-76
2023/05/28 04:26:07;;;;;;;19.52;8.50;;;;;;;;;;5054316;28;20531;-75
2023/05/28 04:28:34;;;;;;;15.07;6.63;;;;;;;;;;5063658;28;20033;-76
2023/05/28 04:31:01;;;;;;;15.68;7.68;;;;;;;;;;5071508;28;20115;-76
2023/05/28 04:33:30;;;;;;;17.58;7.43;;;;;;;;;;5060422;28;20033;-76
2023/05/28 04:35:57;;;;;;;13.65;4.88;;;;;;;;;;5054788;28;20035;-77
2023/05/28 04:38:23;;;;;;;13.75;5.07;;;;;;;;;;5054206;28;20021;-75
2023/05/28 04:40:49;;;;;;;18.17;7.15;;;;;;;;;;5071397;28;20020;-77
2023/05/28 04:43:18;;;;;;;25.65;9.68;;;;;;;;;;5054243;28;20607;-75
2023/05/28 04:45:44;;;;;;;13.70;5.32;;;;;;;;;;5071213;28;20028;-76
2023/05/28 04:48:10;;;;;;;18.15;6.80;;;;;;;;;;5071271;28;20078;-75
2023/05/28 04:50:37;;;;;;;10.65;3.80;;;;;;;;;;5071898;28;20029;-75
2023/05/28 04:53:03;;;;;;;10.68;5.22;;;;;;;;;;5071254;28;20033;-75
2023/05/28 04:55:29;;;;;;;32.08;10.52;;;;;;;;;;5057900;28;20029;-76
2023/05/28 04:57:55;;;;;;;17.90;6.47;;;;;;;;;;5052491;28;20098;-76
2023/05/28 05:00:23;;;;;;;17.38;7.40;;;;;;;;;;5071482;28;20479;-75
2023/05/28 05:02:50;;;;;;;15.02;5.93;;;;;;;;;;5061393;28;20178;-77
2023/05/28 05:05:17;;;;;;;18.75;8.68;;;;;;;;;;5052945;28;20031;-76
2023/05/28 05:07:43;;;;;;;21.90;7.68;;;;;;;;;;5071897;28;20108;-77
2023/05/28 05:10:09;;;;;;;17.65;7.55;;;;;;;;;;5069276;28;20504;-77
2023/05/28 05:12:36;;;;;;;10.43;4.93;;;;;;;;;;5052224;28;20483;-76
2023/05/28 05:15:02;;;;;;;18.90;7.90;;;;;;;;;;5065262;28;20111;-76
2023/05/28 05:17:28;;;;;;;16.17;7.75;;;;;;;;;;5050384;28;20039;-77
2023/05/28 05:19:55;;;;;;;14.93;6.80;;;;;;;;;;5069244;28;20020;-75
2023/05/28 05:22:21;;;;;;;12.82;5.45;;;;;;;;;;5071750;28;20529;-76
2023/05/28 05:24:48;;;;;;;11.55;5.15;;;;;;;;;;5068615;28;20041;-75
2023/05/28 05:27:14;;;;;;;17.13;7.10;;;;;;;;;;5044795;28;20028;-76
2023/05/28 05:29:40;;;;;;;15.18;6.22;;;;;;;;;;5053649;28;20032;-76
2023/05/28 05:32:06;;;;;;;18.05;8.20;;;;;;;;;;5054163;28;20086;-76
2023/05/28 05:34:33;;;;;;;15.60;5.50;;;;;;;;;;5055729;28;20033;-77
2023/05/28 05:36:59;;;;;;;12.70;4.97;;;;;;;;;;5071711;28;20025;-76
2023/05/28 05:39:25;;;;;;;22.95;9.10;;;;;;;;;;5071493;28;20024;-76
2023/05/28 05:41:51;;;;;;;17.45;6.95;;;;;;;;;;5053427;28;20028;-76
2023/05/28 05:44:17;;;;;;;14.48;5.47;;;;;;;;;;5070802;28;20505;-77
2023/05/28 05:46:43;;;;;;;16.88;7.55;;;;;;;;;;5070086;28;20056;-76
2023/05/28 05:49:10;;;;;;;16.42;6.85;;;;;;;;;;5070693;28;20054;-76
2023/05/28 05:51:36;;;;;;;21.60;8.52;;;;;;;;;;5071105;28;20033;-76
2023/05/28 05:54:02;;;;;;;19.67;8.57;;;;;;;;;;5053838;28;20021;-76
2023/05/28 05:56:28;;;;;;;21.45;8.63;;;;;;;;;;5068870;28;20527;-76
2023/05/28 05:58:54;;;;;;;17.17;8.35;;;;;;;;;;5051577;28;20052;-76
2023/05/28 06:01:21;;;;;;;17.00;7.90;;;;;;;;;;5070152;28;20031;-78
2023/05/28 06:03:47;;;;;;;15.48;6.57;;;;;;;;;;5047757;28;20060;-77
2023/05/28 06:06:15;;;;;;;16.05;7.75;;;;;;;;;;5063875;28;20045;-76
2023/05/28 06:08:41;;;;;;;16.85;7.47;;;;;;;;;;5052626;28;20112;-77
2023/05/28 06:11:07;;;;;;;15.85;6.78;;;;;;;;;;5052948;28;20071;-77
2023/05/28 06:13:35;;;;;;;9.02;4.60;;;;;;;;;;5070451;28;20033;-76
2023/05/28 06:16:01;;;;;;;18.70;8.23;;;;;;;;;;5071431;28;20040;-76
2023/05/28 06:18:28;;;;;;;15.18;6.63;;;;;;;;;;5048914;28;20093;-76
2023/05/28 06:20:55;;;;;;;23.33;9.60;;;;;;;;;;5062999;28;20032;-76
2023/05/28 06:23:21;;;;;;;26.65;9.60;;;;;;;;;;5050830;28;20044;-76
2023/05/28 06:25:47;;;;;;;22.45;10.00;;;;;;;;;;5062013;28;20383;-77
2023/05/28 06:28:13;;;;;;;18.90;7.18;;;;;;;;;;5050739;28;20060;-76
2023/05/28 06:30:40;;;;;;;21.48;9.27;;;;;;;;;;5049274;28;20064;-76
2023/05/28 06:33:06;;;;;;;20.70;9.55;;;;;;;;;;5050365;28;20032;-77
2023/05/28 06:35:32;;;;;;;16.27;8.20;;;;;;;;;;5049402;28;20025;-76
2023/05/28 06:37:58;;;;;;;10.98;4.90;;;;;;;;;;5049820;28;20024;-75
2023/05/28 06:40:24;;;;;;;11.32;4.90;;;;;;;;;;5069281;28;20020;-76
2023/05/28 06:42:50;;;;;;;14.25;6.53;;;;;;;;;;5055898;28;20032;-76
2023/05/28 06:45:17;;;;;;;21.17;9.65;;;;;;;;;;5068696;28;20086;-76
2023/05/28 06:47:43;;;;;;;21.92;9.25;;;;;;;;;;5068638;28;20020;-75
2023/05/28 06:50:09;;;;;;;15.52;7.80;;;;;;;;;;5069205;28;20024;-76
2023/05/28 06:52:35;;;;;;;17.80;9.30;;;;;;;;;;5069011;28;20028;-76
2023/05/28 06:55:01;;;;;;;19.75;8.77;;;;;;;;;;5062071;28;20127;-76
2023/05/28 06:57:27;;;;;;;17.92;7.78;;;;;;;;;;5069162;28;20188;-76
2023/05/28 06:59:53;;;;;;;20.40;8.07;;;;;;;;;;5049884;28;20020;-75
2023/05/28 07:02:19;;;;;;;20.83;8.23;;;;;;;;;;5053374;28;20395;-77
2023/05/28 07:04:46;;;;;;;16.08;7.93;;;;;;;;;;5048858;28;20056;-75
2023/05/28 07:07:12;;;;;;;19.35;8.18;;;;;;;;;;5048542;28;20154;-76
2023/05/28 07:09:38;;;;;;;12.73;4.78;;;;;;;;;;5048357;28;20060;-76
2023/05/28 07:12:05;;;;;;;12.10;4.28;;;;;;;;;;5064478;28;20032;-76
2023/05/28 07:14:31;;;;;;;10.13;4.22;;;;;;;;;;5069050;28;20049;-76
2023/05/28 07:16:57;;;;;;;10.88;4.43;;;;;;;;;;5061312;28;20511;-75
2023/05/28 07:19:23;;;;;;;12.88;5.78;;;;;;;;;;5047994;28;20068;-75
2023/05/28 07:21:49;;;;;;;10.88;4.85;;;;;;;;;;5064929;28;20039;-75
2023/05/28 07:24:15;;;;;;;11.05;5.20;;;;;;;;;;5067693;28;20041;-75
2023/05/28 07:26:41;;;;;;;16.58;5.78;;;;;;;;;;5068306;28;20047;-75
2023/05/28 07:29:07;;;;;;;10.75;5.20;;;;;;;;;;5068246;28;20032;-75
2023/05/28 07:31:33;;;;;;;23.05;7.13;;;;;;;;;;5070695;28;20475;-74
2023/05/28 07:33:59;;;;;;;11.45;4.40;;;;;;;;;;5072529;28;20548;-75
2023/05/28 07:36:25;;;;;;;12.05;5.38;;;;;;;;;;5072814;28;20120;-74
2023/05/28 07:38:51;;;;;;;10.63;3.90;;;;;;;;;;5072588;28;20021;-75
2023/05/28 07:41:17;;;;;;;7.47;3.85;;;;;;;;;;5054304;28;20522;-74
2023/05/28 07:43:43;;;;;;;9.88;3.90;;;;;;;;;;5071952;28;20048;-74
2023/05/28 07:46:09;;;;;;;9.88;4.47;;;;;;;;;;5071284;28;20099;-74
2023/05/28 07:48:35;;;;;;;8.65;3.35;;;;;;;;;;5071676;28;20024;-76
2023/05/28 07:51:01;;;;;;;10.55;4.25;;;;;;;;;;5067047;28;20067;-75
2023/05/28 07:53:27;;;;;;;10.15;4.30;;;;;;;;;;5060376;28;20406;-75
2023/05/28 07:55:55;;;;;;;16.08;5.72;;;;;;;;;;5052249;28;20104;-74
2023/05/28 07:58:21;;;;;;;9.60;3.38;;;;;;;;;;5052260;28;20061;-73
2023/05/28 08:00:47;;;;;;;12.52;5.03;;;;;;;;;;5054353;28;20029;-76
2023/05/28 08:03:13;;;;;;;7.78;2.97;;;;;;;;;;5072262;28;20107;-75
2023/05/28 08:05:39;;;;;;;11.75;3.97;;;;;;;;;;5072244;28;20078;-76
2023/05/28 08:08:06;;;;;;;9.50;3.67;;;;;;;;;;5054084;28;20025;-75
2023/05/28 08:10:32;;;;;;;10.20;4.70;;;;;;;;;;5066295;28;20029;-76
2023/05/28 08:12:58;;;;;;;8.63;3.22;;;;;;;;;;5063869;28;20039;-76
2023/05/28 08:15:24;;;;;;;12.13;3.90;;;;;;;;;;5071141;28;20111;-76
2023/05/28 08:17:50;;;;;;;10.52;3.97;;;;;;;;;;5071826;28;20449;-75
2023/05/28 08:20:16;;;;;;;9.40;3.80;;;;;;;;;;5064066;28;20025;-75
2023/05/28 08:22:42;;;;;;;10.70;3.75;;;;;;;;;;5065038;28;20027;-76
2023/05/28 08:25:08;;;;;;;9.57;3.45;;;;;;;;;;5071125;28;20417;-75
2023/05/28 08:27:38;;;;;;;8.43;4.10;;;;;;;;;;5058519;28;20039;-75
2023/05/28 08:30:04;;;;;;;9.50;3.58;;;;;;;;;;5071259;28;20515;-75
2023/05/28 08:32:30;;;;;;;9.02;3.13;;;;;;;;;;5057221;28;20616;-74
2023/05/28 08:34:56;;;;;;;10.30;3.83;;;;;;;;;;5058697;28;20021;-76
2023/05/28 08:37:22;;;;;;;8.20;3.33;;;;;;;;;;5070832;28;20044;-75
2023/05/28 08:39:48;;;;;;;15.75;5.65;;;;;;;;;;5071166;28;20021;-75
2023/05/28 08:42:14;;;;;;;6.85;2.95;;;;;;;;;;5040577;28;20029;-76
2023/05/28 08:44:40;;;;;;;9.85;4.07;;;;;;;;;;5071848;28;20041;-74
2023/05/28 08:47:07;;;;;;;10.32;3.33;;;;;;;;;;5071930;28;20040;-74
2023/05/28 08:49:41;;;;;;;10.45;3.90;;;;;;;;;;5072041;28;20104;-75
2023/05/28 08:52:09;;;;;;;11.02;3.90;;;;;;;;;;5072308;28;20123;-75
2023/05/28 08:54:35;;;;;;;8.60;3.22;;;;;;;;;;5072397;28;20170;-74
2023/05/28 08:57:02;;;;;;;9.25;3.95;;;;;;;;;;5058329;28;20562;-74
2023/05/28 08:59:28;;;;;;;10.55;4.15;;;;;;;;;;5073305;28;20052;-74
2023/05/28 09:01:55;;;;;;;9.40;3.95;;;;;;;;;;5068532;28;20112;-74
2023/05/28 09:04:21;;;;;;;9.55;3.40;;;;;;;;;;5054111;28;20037;-75
2023/05/28 09:06:48;;;;;;;12.23;4.00;;;;;;;;;;5054523;28;20460;-74
2023/05/28 09:09:14;;;;;;;10.32;3.70;;;;;;;;;;5072724;28;20104;-74
2023/05/28 09:11:40;;;;;;;9.50;3.28;;;;;;;;;;5059339;28;20031;-75
2023/05/28 09:14:10;;;;;;;6.25;2.38;;;;;;;;;;5072394;28;20027;-74
2023/05/28 09:16:36;;;;;;;12.90;4.68;;;;;;;;;;5068916;28;20482;-75
2023/05/28 09:19:04;;;;;;;9.48;3.50;;;;;;;;;;5058200;28;20036;-75
2023/05/28 09:21:30;;;;;;;13.57;4.35;;;;;;;;;;5048736;28;20026;-74
2023/05/28 09:23:56;;;;;;;10.05;3.95;;;;;;;;;;5036510;28;20040;-75
2023/05/28 09:26:24;;;;;;;11.30;4.25;;;;;;;;;;5052861;28;20082;-76
2023/05/28 09:28:52;;;;;;;8.63;3.33;;;;;;;;;;5053900;28;20036;-75
2023/05/28 09:31:18;;;;;;;12.52;5.00;;;;;;;;;;5051852;28;20036;-75
2023/05/28 09:33:48;;;;;;;12.27;4.88;;;;;;;;;;5050508;28;20021;-74
2023/05/28 09:36:18;;;;;;;8.25;3.20;;;;;;;;;;5051857;28;20028;-75
2023/05/28 09:38:45;;;;;;;9.23;3.45;;;;;;;;;;5051217;28;20471;-74
2023/05/28 09:41:19;;;;;;;6.78;2.83;;;;;;;;;;5059905;28;20029;-75
2023/05/28 09:43:47;;;;;;;9.27;3.58;;;;;;;;;;5065267;28;20072;-76
2023/05/28 09:46:13;;;;;;;9.85;3.03;;;;;;;;;;5064063;28;20028;-74
2023/05/28 09:48:39;;;;;;;8.55;3.53;;;;;;;;;;5065044;28;20029;-75
2023/05/28 09:51:06;;;;;;;12.40;4.90;;;;;;;;;;5050716;28;20029;-76
2023/05/28 09:53:36;;;;;;;6.80;2.80;;;;;;;;;;5070163;28;20033;-75
2023/05/28 09:56:03;;;;;;;9.23;4.15;;;;;;;;;;5073669;28;20031;-73
2023/05/28 09:58:34;;;;;;;6.45;2.97;;;;;;;;;;5057254;28;20044;-73
2023/05/28 10:01:04;;;;;;;11.77;4.65;;;;;;;;;;5053281;28;20039;-76
2023/05/28 10:03:42;;;;;;;10.07;3.85;;;;;;;;;;5062880;28;20029;-76
2023/05/28 10:06:13;;;;;;;10.30;3.55;;;;;;;;;;5065472;28;20036;-75
2023/05/28 10:08:39;;;;;;;12.93;4.68;;;;;;;;;;5069953;28;20028;-76
2023/05/28 10:11:10;;;;;;;14.40;4.28;;;;;;;;;;5038494;28;20769;-75
2023/05/28 10:13:36;;;;;;;13.18;4.65;;;;;;;;;;5069800;28;20017;-76
2023/05/28 10:16:02;;;;;;;12.00;4.35;;;;;;;;;;5069791;28;20047;-76
2023/05/28 10:18:29;;;;;;;16.70;5.43;;;;;;;;;;5063915;28;20013;-74
2023/05/28 10:20:55;;;;;;;12.98;4.30;;;;;;;;;;5044515;28;20029;-76
2023/05/28 10:23:22;;;;;;;11.85;4.65;;;;;;;;;;5069468;28;20032;-74
2023/05/28 10:25:48;;;;;;;13.15;4.65;;;;;;;;;;5069542;28;20035;-74
2023/05/28 10:28:15;;;;;;;11.68;4.32;;;;;;;;;;5058257;28;20083;-75
2023/05/28 10:30:42;;;;;;;11.02;4.60;;;;;;;;;;5049904;28;20035;-75
2023/05/28 10:33:08;;;;;;;14.45;3.92;;;;;;;;;;5048942;28;20131;-75
2023/05/28 10:35:35;;;;;;;15.05;4.05;;;;;;;;;;5048794;28;20056;-75
2023/05/28 10:38:08;;;;;;;12.13;4.53;;;;;;;;;;5045194;28;20120;-75
2023/05/28 10:40:35;;;;;;;11.57;3.92;;;;;;;;;;5056046;28;20046;-75
2023/05/28 10:43:02;;;;;;;11.98;4.10;;;;;;;;;;5053983;28;20514;-75
2023/05/28 10:45:39;;;;;;;10.38;3.55;;;;;;;;;;5063325;28;20028;-76
2023/05/28 10:48:05;;;;;;;12.68;3.88;;;;;;;;;;5064141;28;20021;-76
2023/05/28 10:50:37;;;;;;;10.77;3.53;;;;;;;;;;5071271;28;20054;-76
2023/05/28 10:53:07;;;;;;;11.75;3.28;;;;;;;;;;5062356;28;20052;-74
2023/05/28 10:55:33;;;;;;;;;;;;;;;;;;5065386;28;20046;-75
2023/05/28 10:58:11;;;;;;;8.35;3.55;;;;;;;;;;5073209;28;19916;-74
2023/05/28 11:00:41;;;;;;;10.77;3.92;;;;;;;;;;5057528;28;20032;-74
2023/05/28 11:03:07;;;;;;;11.90;3.53;;;;;;;;;;5063061;28;20051;-75
2023/05/28 11:05:35;;;;;;;12.90;4.07;;;;;;;;;;5074466;28;20020;-75
2023/05/28 11:08:02;;;;;;;9.60;3.30;;;;;;;;;;5072538;28;20036;-75
2023/05/28 11:10:28;;;;;;;11.15;3.65;;;;;;;;;;5076939;28;20028;-75
2023/05/28 11:12:55;;;;;;;12.40;4.28;;;;;;;;;;5070851;28;20024;-76
2023/05/28 11:15:21;;;;;;;11.15;4.57;;;;;;;;;;5080637;28;20384;-75
2023/05/28 11:17:49;;;;;;;8.95;4.05;;;;;;;;;;5077632;28;20109;-75
2023/05/28 11:20:28;;;;;;;10.38;4.07;;;;;;;;;;5080931;28;20025;-75
2023/05/28 11:22:55;;;;;;;11.13;4.28;;;;;;;;;;5072697;28;20025;-75
2023/05/28 11:25:22;;;;;;;7.88;3.67;;;;;;;;;;5066478;28;20025;-76
2023/05/28 11:27:51;;;;;;;9.07;3.25;;;;;;;;;;5066406;28;20039;-75
2023/05/28 11:30:18;;;;;;;14.73;5.03;;;;;;;;;;5079826;28;20017;-76
2023/05/28 11:32:44;;;;;;;12.68;4.90;;;;;;;;;;5080341;28;20029;-76
2023/05/28 11:35:12;;;;;;;11.13;4.20;;;;;;;;;;5074508;28;20475;-76
2023/05/28 11:37:39;;;;;;;8.38;3.80;;;;;;;;;;5078229;28;20028;-75
2023/05/28 11:40:09;;;;;;;13.32;4.78;;;;;;;;;;5074780;28;20355;-76
2023/05/28 11:42:35;;;;;;;9.23;3.40;;;;;;;;;;5077236;28;20029;-74
2023/05/28 11:45:01;;;;;;;8.90;3.53;;;;;;;;;;5066617;28;20025;-75
2023/05/28 11:47:27;;;;;;;11.02;4.20;;;;;;;;;;5082546;28;20024;-75
2023/05/28 11:49:54;;;;;;;9.70;3.80;;;;;;;;;;5066530;28;20039;-73
2023/05/28 11:52:22;;;;;;;6.95;2.85;;;;;;;;;;5067388;28;20029;-75
2023/05/28 11:54:52;;;;;;;10.57;4.70;;;;;;;;;;5073634;28;20105;-75
2023/05/28 11:57:22;;;;;;;9.60;3.65;;;;;;;;;;5073000;28;20098;-76
2023/05/28 12:00:00;;;;;;;10.18;3.50;;;;;;;;;;5072051;28;20123;-74
2023/05/28 12:02:26;;;;;;;8.73;3.67;;;;;;;;;;5078327;28;20445;-75
2023/05/28 12:04:59;;;;;;;8.80;3.15;;;;;;;;;;5080062;28;20045;-74
2023/05/28 12:07:48;;;;;;;10.02;4.32;;;;;;;;;;5077627;28;20037;-75
2023/05/28 12:10:16;;;;;;;8.85;3.55;;;;;;;;;;5061943;28;20132;-76
2023/05/28 12:12:43;;;;;;;6.60;3.03;;;;;;;;;;5088029;28;20047;-74
2023/05/28 12:15:10;;;;;;;5.45;2.80;;;;;;;;;;5061212;28;20581;-75
2023/05/28 12:17:37;;;;;;;7.50;3.22;;;;;;;;;;5061467;28;20016;-76
2023/05/28 12:20:26;;;;;;;14.48;4.15;;;;;;;;;;5059955;28;20053;-75
2023/05/28 12:23:02;;;;;;;12.73;4.07;;;;;;;;;;5055775;28;20106;-75
2023/05/28 12:25:28;;;;;;;10.85;4.03;;;;;;;;;;5062232;28;20036;-75
2023/05/28 12:27:56;;;;;;;8.80;3.17;;;;;;;;;;5080627;28;20048;-75
2023/05/28 12:30:22;;;;;;;7.43;2.80;;;;;;;;;;5083390;28;20025;-75
2023/05/28 12:32:48;;;;;;;9.52;3.35;;;;;;;;;;5080295;28;20043;-76
2023/05/28 12:35:14;;;;;;;9.75;3.85;;;;;;;;;;5078300;28;20510;-83
2023/05/28 12:37:40;;;;;;;12.43;3.22;;;;;;;;;;5077496;28;20487;-74
2023/05/28 12:40:06;;;;;;;7.95;3.30;;;;;;;;;;5063544;28;20017;-74
2023/05/28 12:42:32;;;;;;;10.65;4.20;;;;;;;;;;5065841;28;20058;-75
2023/05/28 12:44:58;;;;;;;10.52;4.18;;;;;;;;;;5062763;28;20187;-75
2023/05/28 12:47:24;;;;;;;9.52;3.05;;;;;;;;;;5072146;28;20419;-75
2023/05/28 12:49:50;;;;;;;8.98;4.55;;;;;;;;;;5073069;28;20032;-76
2023/05/28 12:52:16;;;;;;;8.43;3.28;;;;;;;;;;5073119;28;20028;-75
2023/05/28 12:54:42;;;;;;;8.55;3.40;;;;;;;;;;5074167;28;20070;-75
2023/05/28 12:57:08;;;;;;;8.73;3.50;;;;;;;;;;5072708;28;20025;-75
2023/05/28 12:59:34;;;;;;;7.75;3.88;;;;;;;;;;5072682;28;20038;-74
2023/05/28 13:02:00;;;;;;;8.75;3.50;;;;;;;;;;5063547;28;20036;-76
2023/05/28 13:04:27;;;;;;;10.60;4.75;;;;;;;;;;5055061;28;20442;-75
2023/05/28 13:06:54;;;;;;;11.57;4.28;;;;;;;;;;5073667;28;20039;-76
2023/05/28 13:09:20;;;;;;;6.38;2.97;;;;;;;;;;5056887;28;20032;-76
2023/05/28 13:11:46;;;;;;;10.32;4.30;;;;;;;;;;5074733;28;20078;-75
2023/05/28 13:14:12;;;;;;;8.20;3.13;;;;;;;;;;5076009;28;20032;-75
2023/05/28 13:16:38;;;;;;;7.93;3.28;;;;;;;;;;5059939;28;20021;-73
2023/05/28 13:19:04;;;;;;;7.95;3.17;;;;;;;;;;5058041;28;20092;-75
2023/05/28 13:21:35;;;;;;;8.00;3.25;;;;;;;;;;5065335;28;20086;-75
2023/05/28 13:24:05;;;;;;;8.23;3.67;;;;;;;;;;5059165;28;20596;-75
2023/05/28 13:26:33;;;;;;;10.35;3.92;;;;;;;;;;5077193;28;20032;-75
2023/05/28 13:28:59;;;;;;;11.32;3.33;;;;;;;;;;5072293;28;20074;-76
2023/05/28 13:31:25;;;;;;;7.95;3.70;;;;;;;;;;5055313;28;20088;-75
2023/05/28 13:33:51;;;;;;;9.10;3.78;;;;;;;;;;5073030;28;20052;-74
2023/05/28 13:36:17;;;;;;;8.15;3.58;;;;;;;;;;5061869;28;20020;-75
2023/05/28 13:38:44;;;;;;;10.57;4.18;;;;;;;;;;5072099;28;20028;-76
2023/05/28 13:41:10;;;;;;;9.65;3.42;;;;;;;;;;5052925;28;20032;-75
2023/05/28 13:43:37;;;;;;;9.00;4.00;;;;;;;;;;5065045;28;20048;-75
2023/05/28 13:46:03;;;;;;;10.30;3.22;;;;;;;;;;5072173;28;20020;-75
2023/05/28 13:48:29;;;;;;;9.05;3.65;;;;;;;;;;5072690;28;20087;-76
2023/05/28 13:50:55;;;;;;;9.68;4.47;;;;;;;;;;5070616;28;20025;-76
2023/05/28 13:53:21;;;;;;;8.25;3.33;;;;;;;;;;5071979;28;20021;-76
2023/05/28 13:55:47;;;;;;;10.00;4.10;;;;;;;;;;5048194;28;20394;-75
2023/05/28 13:58:13;;;;;;;9.65;3.58;;;;;;;;;;5066768;28;20040;-74
2023/05/28 14:00:39;;;;;;;11.18;4.50;;;;;;;;;;5054828;28;20086;-75
2023/05/28 14:03:05;;;;;;;9.32;4.45;;;;;;;;;;5051454;28;20093;-75
2023/05/28 14:05:31;;;;;;;10.52;4.38;;;;;;;;;;5049863;28;20037;-75
2023/05/28 14:07:58;;;;;;;7.53;3.55;;;;;;;;;;5054840;28;20036;-75
2023/05/28 14:10:24;;;;;;;7.68;3.55;;;;;;;;;;5056948;28;20029;-76
2023/05/28 14:12:53;;;;;;;11.45;5.35;;;;;;;;;;5059707;28;20025;-75
2023/05/28 14:15:19;;;;;;;7.72;4.25;;;;;;;;;;5059572;28;20025;-75
2023/05/28 14:17:45;;;;;;;10.55;4.72;;;;;;;;;;5068843;28;20020;-76
2023/05/28 14:20:11;;;;;;;10.80;3.97;;;;;;;;;;5050734;28;20017;-75
2023/05/28 14:22:37;;;;;;;9.48;4.28;;;;;;;;;;5054685;28;20062;-75
2023/05/28 14:25:03;;;;;;;9.95;4.75;;;;;;;;;;5048246;28;20040;-74
2023/05/28 14:27:29;;;;;;;11.70;4.43;;;;;;;;;;5056070;28;20035;-75
2023/05/28 14:29:55;;;;;;;9.30;3.58;;;;;;;;;;5056579;28;20025;-75
2023/05/28 14:32:21;;;;;;;10.38;4.43;;;;;;;;;;5065749;28;20131;-76